sensor_id;sensor_type;location;lat;lon;timestamp;temperature;humidity
44990;DHT22;30723;51.206;3.326;2023-07-29T00:01:09;18.00;99.90
44990;DHT22;30723;51.206;3.326;2023-07-29T00:03:35;17.90;99.90
44990;DHT22;30723;51.206;3.326;2023-07-29T00:06:02;17.90;99.90
44990;DHT22;30723;51.206;3.326;2023-07-29T00:08:28;17.90;99.90
44990;DHT22;30723;51.206;3.326;2023-07-29T00:10:55;17.90;99.90
44990;DHT22;30723;51.206;3.326;2023-07-29T00:13:22;17.90;99.90
44990;DHT22;30723;51.206;3.326;2023-07-29T00:15:48;17.90;99.90
44990;DHT22;30723;51.206;3.326;2023-07-29T00:18:14;17.90;99.90
44990;DHT22;30723;51.206;3.326;2023-07-29T00:20:41;17.90;99.90
44990;DHT22;30723;51.206;3.326;2023-07-29T00:23:08;17.90;99.90
44990;DHT22;30723;51.206;3.326;2023-07-29T00:25:35;17.80;99.90
44990;DHT22;30723;51.206;3.326;2023-07-29T00:28:01;17.80;99.90
44990;DHT22;30723;51.206;3.326;2023-07-29T00:30:27;17.70;99.90
44990;DHT22;30723;51.206;3.326;2023-07-29T00:32:54;17.70;99.90
44990;DHT22;30723;51.206;3.326;2023-07-29T00:35:20;17.70;99.90
44990;DHT22;30723;51.206;3.326;2023-07-29T00:37:47;17.70;99.90
44990;DHT22;30723;51.206;3.326;2023-07-29T00:40:35;17.80;99.90
44990;DHT22;30723;51.206;3.326;2023-07-29T00:43:01;17.70;99.90
44990;DHT22;30723;51.206;3.326;2023-07-29T00:45:29;17.70;99.90
44990;DHT22;30723;51.206;3.326;2023-07-29T00:47:56;17.60;99.90
44990;DHT22;30723;51.206;3.326;2023-07-29T00:50:22;17.60;99.90
44990;DHT22;30723;51.206;3.326;2023-07-29T00:52:50;17.70;99.90
44990;DHT22;30723;51.206;3.326;2023-07-29T00:55:18;17.70;99.90
44990;DHT22;30723;51.206;3.326;2023-07-29T00:57:44;17.60;99.90
44990;DHT22;30723;51.206;3.326;2023-07-29T01:00:15;17.60;99.90
44990;DHT22;30723;51.206;3.326;2023-07-29T01:02:43;17.60;99.90
44990;DHT22;30723;51.206;3.326;2023-07-29T01:05:11;17.60;99.90
44990;DHT22;30723;51.206;3.326;2023-07-29T01:07:59;17.60;99.90
44990;DHT22;30723;51.206;3.326;2023-07-29T01:11:30;17.60;99.90
44990;DHT22;30723;51.206;3.326;2023-07-29T01:16:17;17.60;99.90
44990;DHT22;30723;51.206;3.326;2023-07-29T01:18:48;17.60;99.90
44990;DHT22;30723;51.206;3.326;2023-07-29T01:21:17;17.50;99.90
44990;DHT22;30723;51.206;3.326;2023-07-29T01:23:44;17.50;99.90
44990;DHT22;30723;51.206;3.326;2023-07-29T01:26:11;17.60;99.90
44990;DHT22;30723;51.206;3.326;2023-07-29T01:28:38;17.60;99.90
44990;DHT22;30723;51.206;3.326;2023-07-29T01:31:25;17.60;99.90
44990;DHT22;30723;51.206;3.326;2023-07-29T01:33:58;17.60;99.90
44990;DHT22;30723;51.206;3.326;2023-07-29T01:36:29;17.50;99.90
44990;DHT22;30723;51.206;3.326;2023-07-29T01:38:57;17.60;99.90
44990;DHT22;30723;51.206;3.326;2023-07-29T01:41:26;17.50;99.90
44990;DHT22;30723;51.206;3.326;2023-07-29T01:43:54;17.60;99.90
44990;DHT22;30723;51.206;3.326;2023-07-29T01:46:22;17.60;99.90
44990;DHT22;30723;51.206;3.326;2023-07-29T01:48:48;17.50;99.90
44990;DHT22;30723;51.206;3.326;2023-07-29T01:51:15;17.50;99.90
44990;DHT22;30723;51.206;3.326;2023-07-29T01:53:41;17.50;99.90
44990;DHT22;30723;51.206;3.326;2023-07-29T01:56:08;17.50;99.90
44990;DHT22;30723;51.206;3.326;2023-07-29T01:58:34;17.50;99.90
44990;DHT22;30723;51.206;3.326;2023-07-29T02:01:00;17.40;99.90
44990;DHT22;30723;51.206;3.326;2023-07-29T02:03:26;17.50;99.90
44990;DHT22;30723;51.206;3.326;2023-07-29T02:05:53;17.40;99.90
44990;DHT22;30723;51.206;3.326;2023-07-29T02:08:20;17.40;99.90
44990;DHT22;30723;51.206;3.326;2023-07-29T02:10:46;17.40;99.90
44990;DHT22;30723;51.206;3.326;2023-07-29T02:13:15;17.30;99.90
44990;DHT22;30723;51.206;3.326;2023-07-29T02:15:42;17.30;99.90
44990;DHT22;30723;51.206;3.326;2023-07-29T02:18:09;17.30;99.90
44990;DHT22;30723;51.206;3.326;2023-07-29T02:20:36;17.30;99.90
44990;DHT22;30723;51.206;3.326;2023-07-29T02:23:02;17.40;99.90
44990;DHT22;30723;51.206;3.326;2023-07-29T02:25:28;17.40;99.90
44990;DHT22;30723;51.206;3.326;2023-07-29T02:27:54;17.40;99.90
44990;DHT22;30723;51.206;3.326;2023-07-29T02:30:21;17.40;99.90
44990;DHT22;30723;51.206;3.326;2023-07-29T02:32:48;17.30;99.90
44990;DHT22;30723;51.206;3.326;2023-07-29T02:35:14;17.30;99.90
44990;DHT22;30723;51.206;3.326;2023-07-29T02:37:41;17.30;99.90
44990;DHT22;30723;51.206;3.326;2023-07-29T02:40:09;17.30;99.90
44990;DHT22;30723;51.206;3.326;2023-07-29T02:42:35;17.30;99.90
44990;DHT22;30723;51.206;3.326;2023-07-29T02:45:01;17.30;99.90
44990;DHT22;30723;51.206;3.326;2023-07-29T02:47:28;17.20;99.90
44990;DHT22;30723;51.206;3.326;2023-07-29T02:49:54;17.30;99.90
44990;DHT22;30723;51.206;3.326;2023-07-29T02:52:20;17.20;99.90
44990;DHT22;30723;51.206;3.326;2023-07-29T02:54:47;17.30;99.90
44990;DHT22;30723;51.206;3.326;2023-07-29T02:57:15;17.20;99.90
44990;DHT22;30723;51.206;3.326;2023-07-29T02:59:42;17.30;99.90
44990;DHT22;30723;51.206;3.326;2023-07-29T03:02:09;17.30;99.90
44990;DHT22;30723;51.206;3.326;2023-07-29T03:04:35;17.20;99.90
44990;DHT22;30723;51.206;3.326;2023-07-29T03:07:02;17.20;99.90
44990;DHT22;30723;51.206;3.326;2023-07-29T03:09:28;17.30;99.90
44990;DHT22;30723;51.206;3.326;2023-07-29T03:11:55;17.30;99.90
44990;DHT22;30723;51.206;3.326;2023-07-29T03:14:23;17.30;99.90
44990;DHT22;30723;51.206;3.326;2023-07-29T03:16:48;17.30;99.90
44990;DHT22;30723;51.206;3.326;2023-07-29T03:19:15;17.30;99.90
44990;DHT22;30723;51.206;3.326;2023-07-29T03:21:41;17.30;99.90
44990;DHT22;30723;51.206;3.326;2023-07-29T03:24:08;17.30;99.90
44990;DHT22;30723;51.206;3.326;2023-07-29T03:26:35;17.30;99.90
44990;DHT22;30723;51.206;3.326;2023-07-29T03:29:01;17.30;99.90
44990;DHT22;30723;51.206;3.326;2023-07-29T03:31:28;17.30;99.90
44990;DHT22;30723;51.206;3.326;2023-07-29T03:33:54;17.30;99.90
44990;DHT22;30723;51.206;3.326;2023-07-29T03:36:21;17.40;99.90
44990;DHT22;30723;51.206;3.326;2023-07-29T03:38:48;17.30;99.90
44990;DHT22;30723;51.206;3.326;2023-07-29T03:41:14;17.40;99.90
44990;DHT22;30723;51.206;3.326;2023-07-29T03:43:41;17.40;99.90
44990;DHT22;30723;51.206;3.326;2023-07-29T03:46:08;17.50;99.90
44990;DHT22;30723;51.206;3.326;2023-07-29T03:48:34;17.50;99.90
44990;DHT22;30723;51.206;3.326;2023-07-29T03:51:01;17.60;99.90
44990;DHT22;30723;51.206;3.326;2023-07-29T03:53:28;17.50;99.90
44990;DHT22;30723;51.206;3.326;2023-07-29T03:55:54;17.50;99.90
44990;DHT22;30723;51.206;3.326;2023-07-29T03:58:21;17.50;99.90
44990;DHT22;30723;51.206;3.326;2023-07-29T04:00:48;17.50;99.90
44990;DHT22;30723;51.206;3.326;2023-07-29T04:03:14;17.40;99.90
44990;DHT22;30723;51.206;3.326;2023-07-29T04:05:40;17.50;99.90
44990;DHT22;30723;51.206;3.326;2023-07-29T04:08:06;17.40;99.90
44990;DHT22;30723;51.206;3.326;2023-07-29T04:10:34;17.40;99.90
44990;DHT22;30723;51.206;3.326;2023-07-29T04:13:01;17.40;99.90
44990;DHT22;30723;51.206;3.326;2023-07-29T04:15:28;17.40;99.90
44990;DHT22;30723;51.206;3.326;2023-07-29T04:17:56;17.40;99.90
44990;DHT22;30723;51.206;3.326;2023-07-29T04:20:23;17.40;99.90
44990;DHT22;30723;51.206;3.326;2023-07-29T04:22:50;17.40;99.90
44990;DHT22;30723;51.206;3.326;2023-07-29T04:25:18;17.40;99.90
44990;DHT22;30723;51.206;3.326;2023-07-29T04:27:45;17.40;99.90
44990;DHT22;30723;51.206;3.326;2023-07-29T04:30:12;17.40;99.90
44990;DHT22;30723;51.206;3.326;2023-07-29T04:32:39;17.40;99.90
44990;DHT22;30723;51.206;3.326;2023-07-29T04:35:07;17.30;99.90
44990;DHT22;30723;51.206;3.326;2023-07-29T04:37:34;17.30;99.90
44990;DHT22;30723;51.206;3.326;2023-07-29T04:40:00;17.30;99.90
44990;DHT22;30723;51.206;3.326;2023-07-29T04:42:27;17.30;99.90
44990;DHT22;30723;51.206;3.326;2023-07-29T04:44:53;17.30;99.90
44990;DHT22;30723;51.206;3.326;2023-07-29T04:47:19;17.30;99.90
44990;DHT22;30723;51.206;3.326;2023-07-29T04:49:45;17.40;99.90
44990;DHT22;30723;51.206;3.326;2023-07-29T04:52:12;17.50;99.90
44990;DHT22;30723;51.206;3.326;2023-07-29T04:54:39;17.50;99.90
44990;DHT22;30723;51.206;3.326;2023-07-29T04:57:06;17.60;99.90
44990;DHT22;30723;51.206;3.326;2023-07-29T04:59:33;17.60;99.90
44990;DHT22;30723;51.206;3.326;2023-07-29T05:02:00;17.70;99.90
44990;DHT22;30723;51.206;3.326;2023-07-29T05:04:26;17.70;99.90
44990;DHT22;30723;51.206;3.326;2023-07-29T05:06:53;17.80;99.90
44990;DHT22;30723;51.206;3.326;2023-07-29T05:09:19;17.90;99.90
44990;DHT22;30723;51.206;3.326;2023-07-29T05:11:49;17.90;99.90
44990;DHT22;30723;51.206;3.326;2023-07-29T05:14:17;18.10;99.90
44990;DHT22;30723;51.206;3.326;2023-07-29T05:16:44;18.10;99.90
44990;DHT22;30723;51.206;3.326;2023-07-29T05:19:11;18.10;99.90
44990;DHT22;30723;51.206;3.326;2023-07-29T05:21:38;18.20;99.90
44990;DHT22;30723;51.206;3.326;2023-07-29T05:24:05;18.20;99.90
44990;DHT22;30723;51.206;3.326;2023-07-29T05:26:32;18.30;99.90
44990;DHT22;30723;51.206;3.326;2023-07-29T05:28:58;18.20;99.90
44990;DHT22;30723;51.206;3.326;2023-07-29T05:31:25;18.10;99.90
44990;DHT22;30723;51.206;3.326;2023-07-29T05:33:51;18.10;99.90
44990;DHT22;30723;51.206;3.326;2023-07-29T05:36:18;18.10;99.90
44990;DHT22;30723;51.206;3.326;2023-07-29T05:38:44;18.20;99.90
44990;DHT22;30723;51.206;3.326;2023-07-29T05:41:10;18.10;99.90
44990;DHT22;30723;51.206;3.326;2023-07-29T05:43:37;18.20;99.90
44990;DHT22;30723;51.206;3.326;2023-07-29T05:46:02;18.20;99.90
44990;DHT22;30723;51.206;3.326;2023-07-29T05:48:28;18.20;99.90
44990;DHT22;30723;51.206;3.326;2023-07-29T05:50:54;18.20;99.90
44990;DHT22;30723;51.206;3.326;2023-07-29T05:53:21;18.30;99.90
44990;DHT22;30723;51.206;3.326;2023-07-29T05:55:47;18.30;99.90
44990;DHT22;30723;51.206;3.326;2023-07-29T05:58:14;18.50;99.90
44990;DHT22;30723;51.206;3.326;2023-07-29T06:00:40;18.50;99.90
44990;DHT22;30723;51.206;3.326;2023-07-29T06:03:06;18.60;99.90
44990;DHT22;30723;51.206;3.326;2023-07-29T06:05:33;18.70;99.90
44990;DHT22;30723;51.206;3.326;2023-07-29T06:08:00;18.70;99.90
44990;DHT22;30723;51.206;3.326;2023-07-29T06:10:26;18.80;99.90
44990;DHT22;30723;51.206;3.326;2023-07-29T06:12:53;18.80;99.90
44990;DHT22;30723;51.206;3.326;2023-07-29T06:15:20;18.90;99.90
44990;DHT22;30723;51.206;3.326;2023-07-29T06:17:49;18.70;99.90
44990;DHT22;30723;51.206;3.326;2023-07-29T06:20:15;18.80;99.90
44990;DHT22;30723;51.206;3.326;2023-07-29T06:22:42;19.00;99.90
44990;DHT22;30723;51.206;3.326;2023-07-29T06:25:09;19.10;99.90
44990;DHT22;30723;51.206;3.326;2023-07-29T06:27:35;19.30;99.90
44990;DHT22;30723;51.206;3.326;2023-07-29T06:30:01;19.30;99.90
44990;DHT22;30723;51.206;3.326;2023-07-29T06:32:27;19.40;99.90
44990;DHT22;30723;51.206;3.326;2023-07-29T06:34:54;19.50;99.90
44990;DHT22;30723;51.206;3.326;2023-07-29T06:37:21;19.50;99.90
44990;DHT22;30723;51.206;3.326;2023-07-29T06:39:48;19.50;99.90
44990;DHT22;30723;51.206;3.326;2023-07-29T06:42:13;19.40;99.90
44990;DHT22;30723;51.206;3.326;2023-07-29T06:44:40;19.50;99.90
44990;DHT22;30723;51.206;3.326;2023-07-29T06:47:06;19.50;99.90
44990;DHT22;30723;51.206;3.326;2023-07-29T06:49:31;19.50;99.90
44990;DHT22;30723;51.206;3.326;2023-07-29T06:51:58;19.60;99.90
44990;DHT22;30723;51.206;3.326;2023-07-29T06:54:24;19.60;99.90
44990;DHT22;30723;51.206;3.326;2023-07-29T06:56:52;19.90;99.90
44990;DHT22;30723;51.206;3.326;2023-07-29T06:59:18;20.50;99.90
44990;DHT22;30723;51.206;3.326;2023-07-29T07:01:45;20.90;99.90
44990;DHT22;30723;51.206;3.326;2023-07-29T07:04:11;21.40;99.90
44990;DHT22;30723;51.206;3.326;2023-07-29T07:06:37;21.80;99.90
44990;DHT22;30723;51.206;3.326;2023-07-29T07:09:04;21.90;99.90
44990;DHT22;30723;51.206;3.326;2023-07-29T07:11:31;21.90;99.90
44990;DHT22;30723;51.206;3.326;2023-07-29T07:13:58;21.80;99.90
44990;DHT22;30723;51.206;3.326;2023-07-29T07:16:24;21.80;99.90
44990;DHT22;30723;51.206;3.326;2023-07-29T07:18:51;21.90;99.90
44990;DHT22;30723;51.206;3.326;2023-07-29T07:21:18;22.30;99.90
44990;DHT22;30723;51.206;3.326;2023-07-29T07:23:44;22.90;99.90
44990;DHT22;30723;51.206;3.326;2023-07-29T07:26:10;23.60;99.90
44990;DHT22;30723;51.206;3.326;2023-07-29T07:28:37;24.20;99.90
44990;DHT22;30723;51.206;3.326;2023-07-29T07:31:03;24.90;99.90
44990;DHT22;30723;51.206;3.326;2023-07-29T07:33:30;25.50;99.90
44990;DHT22;30723;51.206;3.326;2023-07-29T07:35:56;25.70;99.90
44990;DHT22;30723;51.206;3.326;2023-07-29T07:38:22;25.30;99.90
44990;DHT22;30723;51.206;3.326;2023-07-29T07:40:57;25.10;99.90
44990;DHT22;30723;51.206;3.326;2023-07-29T07:43:25;25.00;99.90
44990;DHT22;30723;51.206;3.326;2023-07-29T07:45:59;25.50;99.90
44990;DHT22;30723;51.206;3.326;2023-07-29T07:48:27;25.60;99.90
44990;DHT22;30723;51.206;3.326;2023-07-29T07:50:54;25.30;99.90
44990;DHT22;30723;51.206;3.326;2023-07-29T07:53:21;25.30;99.90
44990;DHT22;30723;51.206;3.326;2023-07-29T07:55:48;25.60;99.90
44990;DHT22;30723;51.206;3.326;2023-07-29T07:58:14;25.50;99.90
44990;DHT22;30723;51.206;3.326;2023-07-29T08:00:40;25.30;99.90
44990;DHT22;30723;51.206;3.326;2023-07-29T08:03:06;25.40;99.90
44990;DHT22;30723;51.206;3.326;2023-07-29T08:05:31;25.30;99.90
44990;DHT22;30723;51.206;3.326;2023-07-29T08:07:58;24.90;99.90
44990;DHT22;30723;51.206;3.326;2023-07-29T08:10:25;24.50;99.90
44990;DHT22;30723;51.206;3.326;2023-07-29T08:12:52;24.20;99.90
44990;DHT22;30723;51.206;3.326;2023-07-29T08:15:18;23.90;99.90
44990;DHT22;30723;51.206;3.326;2023-07-29T08:17:46;24.10;99.90
44990;DHT22;30723;51.206;3.326;2023-07-29T08:20:12;24.30;99.90
44990;DHT22;30723;51.206;3.326;2023-07-29T08:22:39;24.60;99.90
44990;DHT22;30723;51.206;3.326;2023-07-29T08:25:05;25.30;99.90
44990;DHT22;30723;51.206;3.326;2023-07-29T08:27:33;25.60;99.90
44990;DHT22;30723;51.206;3.326;2023-07-29T08:29:59;25.90;99.90
44990;DHT22;30723;51.206;3.326;2023-07-29T08:32:26;25.40;99.90
44990;DHT22;30723;51.206;3.326;2023-07-29T08:34:53;25.20;99.90
44990;DHT22;30723;51.206;3.326;2023-07-29T08:37:19;24.60;99.90
44990;DHT22;30723;51.206;3.326;2023-07-29T08:39:46;24.40;99.90
44990;DHT22;30723;51.206;3.326;2023-07-29T08:42:13;23.80;99.90
44990;DHT22;30723;51.206;3.326;2023-07-29T08:44:43;23.40;99.90
44990;DHT22;30723;51.206;3.326;2023-07-29T08:47:10;23.20;99.90
44990;DHT22;30723;51.206;3.326;2023-07-29T08:49:38;22.70;99.90
44990;DHT22;30723;51.206;3.326;2023-07-29T08:52:06;22.20;99.90
44990;DHT22;30723;51.206;3.326;2023-07-29T08:54:33;21.60;99.90
44990;DHT22;30723;51.206;3.326;2023-07-29T08:57:00;21.10;99.90
44990;DHT22;30723;51.206;3.326;2023-07-29T08:59:28;20.80;99.90
44990;DHT22;30723;51.206;3.326;2023-07-29T09:01:55;20.40;99.90
44990;DHT22;30723;51.206;3.326;2023-07-29T09:04:23;20.10;99.90
44990;DHT22;30723;51.206;3.326;2023-07-29T09:06:51;19.90;99.90
44990;DHT22;30723;51.206;3.326;2023-07-29T09:09:20;19.80;99.90
44990;DHT22;30723;51.206;3.326;2023-07-29T09:11:47;19.60;99.90
44990;DHT22;30723;51.206;3.326;2023-07-29T09:14:14;19.60;99.90
44990;DHT22;30723;51.206;3.326;2023-07-29T09:16:41;19.60;99.90
44990;DHT22;30723;51.206;3.326;2023-07-29T09:19:08;19.50;99.90
44990;DHT22;30723;51.206;3.326;2023-07-29T09:21:33;19.40;99.90
44990;DHT22;30723;51.206;3.326;2023-07-29T09:24:03;19.40;99.90
44990;DHT22;30723;51.206;3.326;2023-07-29T09:26:30;19.30;99.90
44990;DHT22;30723;51.206;3.326;2023-07-29T09:28:58;19.40;99.90
44990;DHT22;30723;51.206;3.326;2023-07-29T09:31:27;19.40;99.90
44990;DHT22;30723;51.206;3.326;2023-07-29T09:34:03;19.40;99.90
44990;DHT22;30723;51.206;3.326;2023-07-29T09:36:32;19.40;99.90
44990;DHT22;30723;51.206;3.326;2023-07-29T09:38:59;19.40;99.90
44990;DHT22;30723;51.206;3.326;2023-07-29T09:41:48;19.50;99.90
44990;DHT22;30723;51.206;3.326;2023-07-29T09:44:14;19.40;99.90
44990;DHT22;30723;51.206;3.326;2023-07-29T09:46:41;19.50;99.90
44990;DHT22;30723;51.206;3.326;2023-07-29T09:49:11;19.40;99.90
44990;DHT22;30723;51.206;3.326;2023-07-29T09:51:41;19.40;99.90
44990;DHT22;30723;51.206;3.326;2023-07-29T09:54:08;19.30;99.90
44990;DHT22;30723;51.206;3.326;2023-07-29T09:56:41;19.20;99.90
44990;DHT22;30723;51.206;3.326;2023-07-29T09:59:08;19.10;99.90
44990;DHT22;30723;51.206;3.326;2023-07-29T10:01:34;19.00;99.90
44990;DHT22;30723;51.206;3.326;2023-07-29T10:04:02;18.90;99.90
44990;DHT22;30723;51.206;3.326;2023-07-29T10:06:30;19.00;99.90
44990;DHT22;30723;51.206;3.326;2023-07-29T10:08:56;19.10;99.90
44990;DHT22;30723;51.206;3.326;2023-07-29T10:11:22;19.50;99.90
44990;DHT22;30723;51.206;3.326;2023-07-29T10:13:49;20.00;99.90
44990;DHT22;30723;51.206;3.326;2023-07-29T10:16:15;20.30;99.90
44990;DHT22;30723;51.206;3.326;2023-07-29T10:18:42;20.50;99.90
44990;DHT22;30723;51.206;3.326;2023-07-29T10:21:10;20.80;99.90
44990;DHT22;30723;51.206;3.326;2023-07-29T10:23:41;21.00;99.90
44990;DHT22;30723;51.206;3.326;2023-07-29T10:26:11;21.30;99.90
44990;DHT22;30723;51.206;3.326;2023-07-29T10:28:41;21.50;99.90
44990;DHT22;30723;51.206;3.326;2023-07-29T10:31:16;21.80;99.90
44990;DHT22;30723;51.206;3.326;2023-07-29T10:33:44;22.00;99.90
44990;DHT22;30723;51.206;3.326;2023-07-29T10:36:10;22.00;99.90
44990;DHT22;30723;51.206;3.326;2023-07-29T10:38:38;22.20;99.90
44990;DHT22;30723;51.206;3.326;2023-07-29T10:41:04;22.20;99.90
44990;DHT22;30723;51.206;3.326;2023-07-29T10:43:35;22.20;99.90
44990;DHT22;30723;51.206;3.326;2023-07-29T10:46:21;22.40;99.90
44990;DHT22;30723;51.206;3.326;2023-07-29T10:51:28;23.10;99.90
44990;DHT22;30723;51.206;3.326;2023-07-29T10:56:34;26.50;99.90
44990;DHT22;30723;51.206;3.326;2023-07-29T11:01:50;27.70;99.90
44990;DHT22;30723;51.206;3.326;2023-07-29T11:12:37;26.20;99.90
44990;DHT22;30723;51.206;3.326;2023-07-29T11:17:34;27.90;99.90
44990;DHT22;30723;51.206;3.326;2023-07-29T11:20:02;28.20;99.90
44990;DHT22;30723;51.206;3.326;2023-07-29T11:22:30;28.60;99.90
44990;DHT22;30723;51.206;3.326;2023-07-29T11:24:57;29.10;99.90
44990;DHT22;30723;51.206;3.326;2023-07-29T11:27:24;29.40;99.90
44990;DHT22;30723;51.206;3.326;2023-07-29T11:29:55;29.40;99.90
44990;DHT22;30723;51.206;3.326;2023-07-29T11:32:22;30.50;99.90
44990;DHT22;30723;51.206;3.326;2023-07-29T11:35:01;30.80;99.90
44990;DHT22;30723;51.206;3.326;2023-07-29T11:37:27;30.60;99.90
44990;DHT22;30723;51.206;3.326;2023-07-29T11:39:53;30.40;99.90
44990;DHT22;30723;51.206;3.326;2023-07-29T11:42:20;30.50;99.90
44990;DHT22;30723;51.206;3.326;2023-07-29T11:44:47;30.20;99.90
44990;DHT22;30723;51.206;3.326;2023-07-29T11:47:14;30.40;99.90
44990;DHT22;30723;51.206;3.326;2023-07-29T11:49:41;30.50;99.90
44990;DHT22;30723;51.206;3.326;2023-07-29T11:52:11;30.20;99.90
44990;DHT22;30723;51.206;3.326;2023-07-29T11:54:39;30.70;99.90
44990;DHT22;30723;51.206;3.326;2023-07-29T11:57:25;31.30;99.90
44990;DHT22;30723;51.206;3.326;2023-07-29T11:59:52;32.30;99.90
44990;DHT22;30723;51.206;3.326;2023-07-29T12:02:21;32.50;99.90
44990;DHT22;30723;51.206;3.326;2023-07-29T12:04:49;31.30;99.90
44990;DHT22;30723;51.206;3.326;2023-07-29T12:07:18;30.40;99.90
44990;DHT22;30723;51.206;3.326;2023-07-29T12:09:46;29.40;99.90
44990;DHT22;30723;51.206;3.326;2023-07-29T12:12:12;28.90;99.90
44990;DHT22;30723;51.206;3.326;2023-07-29T12:14:38;28.60;99.90
44990;DHT22;30723;51.206;3.326;2023-07-29T12:17:05;28.40;99.90
44990;DHT22;30723;51.206;3.326;2023-07-29T12:19:37;28.50;99.90
44990;DHT22;30723;51.206;3.326;2023-07-29T12:22:08;29.00;99.90
44990;DHT22;30723;51.206;3.326;2023-07-29T12:24:37;28.70;99.90
44990;DHT22;30723;51.206;3.326;2023-07-29T12:27:03;28.10;99.90
44990;DHT22;30723;51.206;3.326;2023-07-29T12:29:29;27.60;99.90
44990;DHT22;30723;51.206;3.326;2023-07-29T12:32:04;27.00;99.90
44990;DHT22;30723;51.206;3.326;2023-07-29T12:34:31;26.50;99.90
44990;DHT22;30723;51.206;3.326;2023-07-29T12:36:58;26.20;99.90
44990;DHT22;30723;51.206;3.326;2023-07-29T12:39:28;25.90;99.90
44990;DHT22;30723;51.206;3.326;2023-07-29T12:41:58;25.70;99.90
44990;DHT22;30723;51.206;3.326;2023-07-29T12:44:29;25.20;99.90
44990;DHT22;30723;51.206;3.326;2023-07-29T12:46:55;24.90;99.90
44990;DHT22;30723;51.206;3.326;2023-07-29T12:49:23;24.50;99.90
44990;DHT22;30723;51.206;3.326;2023-07-29T12:51:50;24.00;99.90
44990;DHT22;30723;51.206;3.326;2023-07-29T12:54:16;23.60;99.90
44990;DHT22;30723;51.206;3.326;2023-07-29T12:56:42;23.00;99.90
44990;DHT22;30723;51.206;3.326;2023-07-29T12:59:09;22.60;99.90
44990;DHT22;30723;51.206;3.326;2023-07-29T13:01:34;22.30;99.90
44990;DHT22;30723;51.206;3.326;2023-07-29T13:04:00;22.40;99.90
44990;DHT22;30723;51.206;3.326;2023-07-29T13:06:27;22.40;99.90
44990;DHT22;30723;51.206;3.326;2023-07-29T13:08:54;22.20;99.90
44990;DHT22;30723;51.206;3.326;2023-07-29T13:11:19;22.20;99.90
44990;DHT22;30723;51.206;3.326;2023-07-29T13:13:46;22.10;99.90
44990;DHT22;30723;51.206;3.326;2023-07-29T13:16:13;21.90;99.90
44990;DHT22;30723;51.206;3.326;2023-07-29T13:18:40;21.80;99.90
44990;DHT22;30723;51.206;3.326;2023-07-29T13:21:09;21.80;99.90
44990;DHT22;30723;51.206;3.326;2023-07-29T13:23:35;22.00;99.90
44990;DHT22;30723;51.206;3.326;2023-07-29T13:26:01;22.00;99.90
44990;DHT22;30723;51.206;3.326;2023-07-29T13:28:28;23.00;99.90
44990;DHT22;30723;51.206;3.326;2023-07-29T13:30:55;24.50;99.90
44990;DHT22;30723;51.206;3.326;2023-07-29T13:33:22;26.10;99.90
44990;DHT22;30723;51.206;3.326;2023-07-29T13:35:48;27.40;99.90
44990;DHT22;30723;51.206;3.326;2023-07-29T13:38:15;28.80;99.90
44990;DHT22;30723;51.206;3.326;2023-07-29T13:40:43;29.40;99.90
44990;DHT22;30723;51.206;3.326;2023-07-29T13:43:09;29.50;99.90
44990;DHT22;30723;51.206;3.326;2023-07-29T13:45:36;29.80;99.90
44990;DHT22;30723;51.206;3.326;2023-07-29T13:48:03;29.90;99.90
44990;DHT22;30723;51.206;3.326;2023-07-29T13:50:29;29.10;99.90
44990;DHT22;30723;51.206;3.326;2023-07-29T13:52:55;28.30;99.90
44990;DHT22;30723;51.206;3.326;2023-07-29T13:55:22;28.50;99.90
44990;DHT22;30723;51.206;3.326;2023-07-29T13:57:48;28.40;99.90
44990;DHT22;30723;51.206;3.326;2023-07-29T14:00:15;27.80;99.90
44990;DHT22;30723;51.206;3.326;2023-07-29T14:02:42;27.10;99.90
44990;DHT22;30723;51.206;3.326;2023-07-29T14:05:10;26.70;99.90
44990;DHT22;30723;51.206;3.326;2023-07-29T14:07:38;26.10;99.90
44990;DHT22;30723;51.206;3.326;2023-07-29T14:10:06;25.70;99.90
44990;DHT22;30723;51.206;3.326;2023-07-29T14:12:32;25.30;99.90
44990;DHT22;30723;51.206;3.326;2023-07-29T14:14:59;25.00;99.90
44990;DHT22;30723;51.206;3.326;2023-07-29T14:17:24;25.00;99.90
44990;DHT22;30723;51.206;3.326;2023-07-29T14:19:51;25.00;99.90
44990;DHT22;30723;51.206;3.326;2023-07-29T14:22:18;25.70;99.90
44990;DHT22;30723;51.206;3.326;2023-07-29T14:24:44;26.40;99.90
44990;DHT22;30723;51.206;3.326;2023-07-29T14:27:11;27.30;99.90
44990;DHT22;30723;51.206;3.326;2023-07-29T14:29:38;28.60;99.90
44990;DHT22;30723;51.206;3.326;2023-07-29T14:32:06;28.50;99.90
44990;DHT22;30723;51.206;3.326;2023-07-29T14:34:32;28.50;99.90
44990;DHT22;30723;51.206;3.326;2023-07-29T14:36:59;28.30;99.90
44990;DHT22;30723;51.206;3.326;2023-07-29T14:39:25;27.80;99.90
44990;DHT22;30723;51.206;3.326;2023-07-29T14:41:52;27.50;99.90
44990;DHT22;30723;51.206;3.326;2023-07-29T14:44:18;28.00;99.90
44990;DHT22;30723;51.206;3.326;2023-07-29T14:46:45;28.50;99.90
44990;DHT22;30723;51.206;3.326;2023-07-29T14:49:12;28.60;99.90
44990;DHT22;30723;51.206;3.326;2023-07-29T14:51:39;28.90;99.90
44990;DHT22;30723;51.206;3.326;2023-07-29T14:54:06;29.10;99.90
44990;DHT22;30723;51.206;3.326;2023-07-29T14:56:32;29.20;99.90
44990;DHT22;30723;51.206;3.326;2023-07-29T14:58:59;29.10;99.90
44990;DHT22;30723;51.206;3.326;2023-07-29T15:01:26;29.30;99.60
44990;DHT22;30723;51.206;3.326;2023-07-29T15:03:51;29.20;98.60
44990;DHT22;30723;51.206;3.326;2023-07-29T15:06:18;29.40;99.10
44990;DHT22;30723;51.206;3.326;2023-07-29T15:08:45;29.40;97.60
44990;DHT22;30723;51.206;3.326;2023-07-29T15:11:11;29.30;95.80
44990;DHT22;30723;51.206;3.326;2023-07-29T15:13:38;30.10;95.50
44990;DHT22;30723;51.206;3.326;2023-07-29T15:16:05;30.30;93.70
44990;DHT22;30723;51.206;3.326;2023-07-29T15:18:31;30.20;91.80
44990;DHT22;30723;51.206;3.326;2023-07-29T15:20:59;29.50;92.80
44990;DHT22;30723;51.206;3.326;2023-07-29T15:23:29;28.70;92.70
44990;DHT22;30723;51.206;3.326;2023-07-29T15:25:55;28.50;94.60
44990;DHT22;30723;51.206;3.326;2023-07-29T15:28:23;28.40;94.20
44990;DHT22;30723;51.206;3.326;2023-07-29T15:30:49;28.40;94.50
44990;DHT22;30723;51.206;3.326;2023-07-29T15:33:17;27.90;94.20
44990;DHT22;30723;51.206;3.326;2023-07-29T15:35:52;27.60;95.20
44990;DHT22;30723;51.206;3.326;2023-07-29T15:38:19;27.40;97.30
44990;DHT22;30723;51.206;3.326;2023-07-29T15:40:46;27.30;97.10
44990;DHT22;30723;51.206;3.326;2023-07-29T15:43:14;27.10;97.50
44990;DHT22;30723;51.206;3.326;2023-07-29T15:45:41;27.10;98.00
44990;DHT22;30723;51.206;3.326;2023-07-29T15:48:08;26.90;97.40
44990;DHT22;30723;51.206;3.326;2023-07-29T15:50:34;26.90;98.50
44990;DHT22;30723;51.206;3.326;2023-07-29T15:53:00;26.70;98.30